Big Stone 5 — WSE3119 — position and weather

sailwx.info

Track history (hours):
 
Tides and Currents Weather Stations Pressure Air Temp Water Temp Dewpoint Dewpoint Depression Visibility Wind Speed Wind Dir Waves Ship Positions

Big Stone 5

Owner: DELAWARE BAY LAUNCH SERVICE INC, MILFORD, DE. More information available from US FCC via Universal Licensing System and Coast Guard Vessel Documentation Center.

Last reported at 2017-Oct-16 15:04 UTC. Time now 2017-Oct-18 01:59 UTC.
Position N 38°60' W 075°13'.

Length 16 m; draft 1 m.

Type: Pilot. MMSI: 367090580.

Date/timePositionNaut miles runAvg speedWind from/ knotsBaromVisibWave heightAir tempDewpointWater temp
2017-Oct-16 15:04N 38°60' W 075°13'6 3.2
2017-Oct-16 13:15N 38°56' W 075°19'2 8.5
2017-Oct-16 13:00N 38°56' W 075°16'2 3.6
2017-Oct-16 12:26N 38°56' W 075°19'0 0.0
2017-Oct-16 11:58N 38°56' W 075°19'0 0.0
2017-Oct-16 01:42N 38°56' W 075°19'5 5.1
2017-Oct-16 00:40N 38°54' W 075°13'3 0.4
2017-Oct-15 15:46N 38°57' W 075°13'5 0.6
2017-Oct-15 07:40N 38°56' W 075°19'718.6
2017-Oct-15 07:19N 38°57' W 075°11'411.0
2017-Oct-15 07:00N 38°59' W 075°14'5 0.8
2017-Oct-15 01:06N 38°56' W 075°19'0 0.0
2017-Oct-15 00:59N 38°56' W 075°19'0 0.0
2017-Oct-15 00:10N 38°56' W 075°19'0 0.0
2017-Oct-14 23:56N 38°56' W 075°19'0 0.0
2017-Oct-14 19:25N 38°56' W 075°19'4 9.1
2017-Oct-14 18:56N 38°59' W 075°15'2 4.1
2017-Oct-14 18:28N 38°57' W 075°16'8 4.0
2017-Oct-14 16:23N 38°55' W 075°06'3 7.3
2017-Oct-14 15:58N 38°56' W 075°09'  
2017-Oct-11 17:20N 38°57' W 075°10'310.2
2017-Oct-11 16:59N 38°56' W 075°06'4 0.2
2017-Oct-10 16:43N 38°58' W 075°11'417.0
2017-Oct-10 16:30N 39°01' W 075°14'7 5.2
2017-Oct-10 15:12N 38°54' W 075°13'1022.4
2017-Oct-10 14:46N 38°49' W 075°03'16 0.7
2017-Oct-09 14:56N 39°01' W 075°18'819.6
2017-Oct-09 14:31N 39°08' W 075°21'1018.8
2017-Oct-09 14:00N 39°18' W 075°23'714.0
2017-Oct-09 13:31N 39°12' W 075°17'916.6
2017-Oct-09 13:00N 39°05' W 075°11'1019.3
2017-Oct-09 12:28N 38°56' W 075°06'10 2.5
2017-Oct-09 08:26N 38°56' W 075°19'0 0.0
2017-Oct-09 07:52N 38°56' W 075°19'0 0.0
2017-Oct-09 07:25N 38°56' W 075°19'0 0.0
2017-Oct-09 07:00N 38°56' W 075°19'0 0.0
2017-Oct-09 06:23N 38°56' W 075°19'0 0.0
2017-Oct-09 06:00N 38°56' W 075°19'0 0.0
2017-Oct-09 05:29N 38°56' W 075°19'0 0.0
2017-Oct-09 05:00N 38°56' W 075°19'0 0.0
2017-Oct-09 04:28N 38°56' W 075°19'0 0.0
2017-Oct-09 03:56N 38°56' W 075°19'0 0.0
2017-Oct-09 03:28N 38°56' W 075°19'0 0.0
2017-Oct-09 03:00N 38°56' W 075°19'0 0.0
2017-Oct-09 02:30N 38°56' W 075°19'0 0.0
2017-Oct-09 01:25N 38°56' W 075°19'0 0.0
2017-Oct-07 22:16N 38°56' W 075°19'0 0.0
2017-Oct-07 21:47N 38°56' W 075°19'0 0.0
2017-Oct-07 21:30N 38°56' W 075°19'0 0.0
2017-Oct-07 21:00N 38°56' W 075°19'0 0.0
2017-Oct-07 20:30N 38°56' W 075°19'0 0.0
2017-Oct-07 20:00N 38°56' W 075°19'0 0.0
2017-Oct-07 19:30N 38°56' W 075°19'4 7.6
2017-Oct-07 19:01N 38°58' W 075°15'3 5.6
2017-Oct-07 18:26N 38°57' W 075°18'512.0
2017-Oct-07 18:01N 38°59' W 075°13'6 9.7
2017-Oct-07 17:26N 38°56' W 075°19'6 5.0
2017-Oct-07 16:15N 38°58' W 075°12'6 1.4
2017-Oct-07 11:56N 38°56' W 075°19'0 0.0
2017-Oct-07 11:28N 38°56' W 075°19'0 0.0
2017-Oct-07 10:58N 38°56' W 075°19'0 0.0
2017-Oct-07 10:30N 38°56' W 075°19'0 0.0
2017-Oct-07 10:00N 38°56' W 075°19'713.3
2017-Oct-07 09:30N 38°54' W 075°11'2 3.4
2017-Oct-07 09:00N 38°55' W 075°09'0 0.1
2017-Oct-07 08:30N 38°55' W 075°09'815.4
2017-Oct-07 08:00N 38°56' W 075°19'0 0.0
2017-Oct-07 07:31N 38°56' W 075°19'0 0.0
2017-Oct-07 07:01N 38°56' W 075°19'0 0.0
2017-Oct-07 06:31N 38°56' W 075°19'0 0.0
2017-Oct-07 06:00N 38°56' W 075°19'6 8.7
2017-Oct-07 05:18N 38°57' W 075°11'0 0.3
2017-Oct-07 04:58N 38°57' W 075°11'0 0.5
2017-Oct-07 04:21N 38°58' W 075°11'0 0.9
2017-Oct-07 03:59N 38°57' W 075°12'4221.1
2017-Oct-07 02:00N 38°34' W 074°27'3 4.6
2017-Oct-07 01:25N 38°32' W 074°25'44 8.0
2017-Oct-06 19:53N 38°57' W 075°11'0 0.1
2017-Oct-06 19:22N 38°57' W 075°11'3 9.0
2017-Oct-06 19:00N 38°57' W 075°15'3 3.3
2017-Oct-06 17:59N 38°57' W 075°11'2 4.4
2017-Oct-06 17:30N 38°56' W 075°09'8 7.9
2017-Oct-06 16:32N 38°56' W 075°19'0 0.0
2017-Oct-06 16:12N 38°56' W 075°19'0 1.0
2017-Oct-06 15:53N 38°57' W 075°19'613.9
2017-Oct-06 15:28N 38°57' W 075°11'  
Track history (hours):
 
Tides and Currents Weather Stations Pressure Air Temp Water Temp Dewpoint Dewpoint Depression Visibility Wind Speed Wind Dir Waves Ship Positions

Big Stone 5

Owner: DELAWARE BAY LAUNCH SERVICE INC, MILFORD, DE. More information available from US FCC via Universal Licensing System and Coast Guard Vessel Documentation Center.

Last reported at 2017-Oct-16 15:04 UTC. Time now 2017-Oct-18 01:59 UTC.
Position N 38°60' W 075°13'.

Length 16 m; draft 1 m.

Type: Pilot. MMSI: 367090580.

Date/timePositionNaut miles runAvg speedWind from/ knotsBaromVisibWave heightAir tempDewpointWater temp
2017-Oct-16 15:04N 38°60' W 075°13'6 3.2
2017-Oct-16 13:15N 38°56' W 075°19'2 8.5
2017-Oct-16 13:00N 38°56' W 075°16'2 3.6
2017-Oct-16 12:26N 38°56' W 075°19'0 0.0
2017-Oct-16 11:58N 38°56' W 075°19'0 0.0
2017-Oct-16 01:42N 38°56' W 075°19'5 5.1
2017-Oct-16 00:40N 38°54' W 075°13'3 0.4
2017-Oct-15 15:46N 38°57' W 075°13'5 0.6
2017-Oct-15 07:40N 38°56' W 075°19'718.6
2017-Oct-15 07:19N 38°57' W 075°11'411.0
2017-Oct-15 07:00N 38°59' W 075°14'5 0.8
2017-Oct-15 01:06N 38°56' W 075°19'0 0.0
2017-Oct-15 00:59N 38°56' W 075°19'0 0.0
2017-Oct-15 00:10N 38°56' W 075°19'0 0.0
2017-Oct-14 23:56N 38°56' W 075°19'0 0.0
2017-Oct-14 19:25N 38°56' W 075°19'4 9.1
2017-Oct-14 18:56N 38°59' W 075°15'2 4.1
2017-Oct-14 18:28N 38°57' W 075°16'8 4.0
2017-Oct-14 16:23N 38°55' W 075°06'3 7.3
2017-Oct-14 15:58N 38°56' W 075°09'  
2017-Oct-11 17:20N 38°57' W 075°10'310.2
2017-Oct-11 16:59N 38°56' W 075°06'4 0.2
2017-Oct-10 16:43N 38°58' W 075°11'417.0
2017-Oct-10 16:30N 39°01' W 075°14'7 5.2
2017-Oct-10 15:12N 38°54' W 075°13'1022.4
2017-Oct-10 14:46N 38°49' W 075°03'16 0.7
2017-Oct-09 14:56N 39°01' W 075°18'819.6
2017-Oct-09 14:31N 39°08' W 075°21'1018.8
2017-Oct-09 14:00N 39°18' W 075°23'714.0
2017-Oct-09 13:31N 39°12' W 075°17'916.6
2017-Oct-09 13:00N 39°05' W 075°11'1019.3
2017-Oct-09 12:28N 38°56' W 075°06'10 2.5
2017-Oct-09 08:26N 38°56' W 075°19'0 0.0
2017-Oct-09 07:52N 38°56' W 075°19'0 0.0
2017-Oct-09 07:25N 38°56' W 075°19'0 0.0
2017-Oct-09 07:00N 38°56' W 075°19'0 0.0
2017-Oct-09 06:23N 38°56' W 075°19'0 0.0
2017-Oct-09 06:00N 38°56' W 075°19'0 0.0
2017-Oct-09 05:29N 38°56' W 075°19'0 0.0
2017-Oct-09 05:00N 38°56' W 075°19'0 0.0
2017-Oct-09 04:28N 38°56' W 075°19'0 0.0
2017-Oct-09 03:56N 38°56' W 075°19'0 0.0
2017-Oct-09 03:28N 38°56' W 075°19'0 0.0
2017-Oct-09 03:00N 38°56' W 075°19'0 0.0
2017-Oct-09 02:30N 38°56' W 075°19'0 0.0
2017-Oct-09 01:25N 38°56' W 075°19'0 0.0
2017-Oct-07 22:16N 38°56' W 075°19'0 0.0
2017-Oct-07 21:47N 38°56' W 075°19'0 0.0
2017-Oct-07 21:30N 38°56' W 075°19'0 0.0
2017-Oct-07 21:00N 38°56' W 075°19'0 0.0
2017-Oct-07 20:30N 38°56' W 075°19'0 0.0
2017-Oct-07 20:00N 38°56' W 075°19'0 0.0
2017-Oct-07 19:30N 38°56' W 075°19'4 7.6
2017-Oct-07 19:01N 38°58' W 075°15'3 5.6
2017-Oct-07 18:26N 38°57' W 075°18'512.0
2017-Oct-07 18:01N 38°59' W 075°13'6 9.7
2017-Oct-07 17:26N 38°56' W 075°19'6 5.0
2017-Oct-07 16:15N 38°58' W 075°12'6 1.4
2017-Oct-07 11:56N 38°56' W 075°19'0 0.0
2017-Oct-07 11:28N 38°56' W 075°19'0 0.0
2017-Oct-07 10:58N 38°56' W 075°19'0 0.0
2017-Oct-07 10:30N 38°56' W 075°19'0 0.0
2017-Oct-07 10:00N 38°56' W 075°19'713.3
2017-Oct-07 09:30N 38°54' W 075°11'2 3.4
2017-Oct-07 09:00N 38°55' W 075°09'0 0.1
2017-Oct-07 08:30N 38°55' W 075°09'815.4
2017-Oct-07 08:00N 38°56' W 075°19'0 0.0
2017-Oct-07 07:31N 38°56' W 075°19'0 0.0
2017-Oct-07 07:01N 38°56' W 075°19'0 0.0
2017-Oct-07 06:31N 38°56' W 075°19'0 0.0
2017-Oct-07 06:00N 38°56' W 075°19'6 8.7
2017-Oct-07 05:18N 38°57' W 075°11'0 0.3
2017-Oct-07 04:58N 38°57' W 075°11'0 0.5
2017-Oct-07 04:21N 38°58' W 075°11'0 0.9
2017-Oct-07 03:59N 38°57' W 075°12'4221.1
2017-Oct-07 02:00N 38°34' W 074°27'3 4.6
2017-Oct-07 01:25N 38°32' W 074°25'44 8.0
2017-Oct-06 19:53N 38°57' W 075°11'0 0.1
2017-Oct-06 19:22N 38°57' W 075°11'3 9.0
2017-Oct-06 19:00N 38°57' W 075°15'3 3.3
2017-Oct-06 17:59N 38°57' W 075°11'2 4.4
2017-Oct-06 17:30N 38°56' W 075°09'8 7.9
2017-Oct-06 16:32N 38°56' W 075°19'0 0.0
2017-Oct-06 16:12N 38°56' W 075°19'0 1.0
2017-Oct-06 15:53N 38°57' W 075°19'613.9
2017-Oct-06 15:28N 38°57' W 075°11'  

Dump ship's entire track history